createdAt,value
2023-05-05T00:01:54.022Z,13.90
2023-05-05T00:04:24.879Z,14.00
2023-05-05T00:06:55.595Z,13.90
2023-05-05T00:09:26.336Z,13.00
2023-05-05T00:11:56.970Z,13.30
2023-05-05T00:14:27.564Z,12.20
2023-05-05T00:16:58.205Z,11.70
2023-05-05T00:19:28.923Z,11.50
2023-05-05T00:21:59.937Z,12.10
2023-05-05T00:26:59.709Z,11.60
2023-05-05T00:29:30.734Z,11.00
2023-05-05T00:32:01.334Z,12.50
2023-05-05T00:34:31.998Z,13.90
2023-05-05T00:37:03.037Z,14.10
2023-05-05T00:42:02.748Z,12.60
2023-05-05T00:44:39.120Z,13.80
2023-05-05T00:47:10.922Z,12.50
2023-05-05T00:49:41.659Z,12.00
2023-05-05T00:52:12.753Z,12.20
2023-05-05T00:57:12.679Z,11.40
2023-05-05T00:59:44.676Z,11.10
2023-05-05T01:02:15.293Z,11.20
2023-05-05T01:04:46.066Z,11.20
2023-05-05T01:07:28.955Z,11.40
2023-05-05T01:10:19.554Z,10.90
2023-05-05T01:12:58.188Z,11.00
2023-05-05T01:15:34.181Z,10.80
2023-05-05T01:18:11.874Z,10.00
2023-05-05T01:20:50.084Z,10.40
2023-05-05T01:23:36.325Z,10.90
2023-05-05T01:26:21.828Z,10.80
2023-05-05T01:29:18.150Z,10.50
2023-05-05T01:31:54.836Z,10.10
2023-05-05T01:34:32.099Z,10.60
2023-05-05T01:37:10.174Z,10.80
2023-05-05T01:39:43.676Z,10.50
2023-05-05T01:42:14.619Z,10.40
2023-05-05T01:44:46.487Z,9.90
2023-05-05T01:47:19.865Z,10.10
2023-05-05T01:49:52.184Z,9.90
2023-05-05T01:52:24.321Z,10.80
2023-05-05T01:54:56.279Z,10.80
2023-05-05T01:57:29.726Z,10.10
2023-05-05T02:00:00.784Z,9.60
2023-05-05T02:05:02.946Z,9.50
2023-05-05T02:07:35.063Z,9.30
2023-05-05T02:10:10.507Z,9.50
2023-05-05T02:12:42.649Z,9.80
2023-05-05T02:15:16.544Z,9.60
2023-05-05T02:17:48.834Z,9.50
2023-05-05T02:20:20.307Z,9.70
2023-05-05T02:22:51.082Z,9.60
2023-05-05T02:25:21.959Z,9.30
2023-05-05T02:27:59.656Z,9.10
2023-05-05T02:30:35.129Z,8.90
2023-05-05T02:33:10.265Z,8.90
2023-05-05T02:35:43.358Z,8.40
2023-05-05T02:38:17.832Z,8.80
2023-05-05T02:40:51.125Z,8.70
2023-05-05T02:43:24.651Z,9.40
2023-05-05T02:45:55.396Z,9.10
2023-05-05T02:48:26.070Z,7.90
2023-05-05T02:50:56.659Z,7.80
2023-05-05T02:53:28.301Z,8.20
2023-05-05T02:56:05.976Z,7.80
2023-05-05T02:58:45.392Z,7.60
2023-05-05T03:01:26.659Z,8.00
2023-05-05T03:04:05.025Z,7.90
2023-05-05T03:06:40.473Z,6.50
2023-05-05T03:09:16.101Z,6.40
2023-05-05T03:11:50.315Z,8.00
2023-05-05T03:14:21.876Z,6.80
2023-05-05T03:16:54.852Z,6.70
2023-05-05T03:19:26.555Z,6.60
2023-05-05T03:21:57.940Z,6.30
2023-05-05T03:24:28.579Z,6.50
2023-05-05T03:26:59.263Z,5.70
2023-05-05T03:29:30.017Z,6.30
2023-05-05T03:32:00.734Z,6.40
2023-05-05T03:34:31.397Z,6.10
2023-05-05T03:37:02.057Z,6.80
2023-05-05T03:39:32.752Z,6.10
2023-05-05T03:42:03.456Z,5.90
2023-05-05T03:44:34.264Z,5.80
2023-05-05T03:47:05.196Z,5.60
2023-05-05T03:49:35.831Z,5.40
2023-05-05T03:52:06.676Z,5.80
2023-05-05T03:54:37.351Z,5.90
2023-05-05T03:57:08.000Z,5.70
2023-05-05T03:59:38.755Z,5.30
2023-05-05T04:02:09.584Z,6.20
2023-05-05T04:04:40.331Z,5.00
2023-05-05T04:07:11.265Z,5.00
2023-05-05T04:09:41.964Z,5.10
2023-05-05T04:12:12.631Z,5.10
2023-05-05T04:14:43.591Z,5.00
2023-05-05T04:17:14.229Z,5.40
2023-05-05T04:19:44.919Z,4.60
2023-05-05T04:22:18.049Z,4.50
2023-05-05T04:24:48.701Z,4.50
2023-05-05T04:27:19.553Z,5.00
2023-05-05T04:29:50.151Z,5.60
2023-05-05T04:32:21.276Z,5.70
2023-05-05T04:34:52.217Z,5.20
2023-05-05T04:37:22.919Z,5.70
2023-05-05T04:39:55.275Z,4.60
2023-05-05T04:42:56.787Z,4.70
2023-05-05T04:46:37.034Z,5.00
2023-05-05T04:50:21.008Z,4.20
2023-05-05T04:53:40.461Z,4.30
2023-05-05T04:55:13.838Z,4.70
2023-05-05T04:58:24.642Z,4.30
2023-05-05T05:00:53.349Z,5.10
2023-05-05T05:03:50.806Z,4.80
2023-05-05T05:07:51.708Z,4.00
2023-05-05T05:10:14.077Z,4.40
2023-05-05T05:12:44.838Z,5.00
2023-05-05T05:15:16.476Z,4.30
2023-05-05T05:17:47.272Z,7.00
2023-05-05T05:20:18.138Z,4.80
2023-05-05T05:22:49.097Z,5.10
2023-05-05T05:25:21.159Z,5.10
2023-05-05T05:28:08.325Z,5.30
2023-05-05T05:30:42.627Z,5.00
2023-05-05T05:33:16.028Z,4.60
2023-05-05T05:35:46.718Z,5.00
2023-05-05T05:38:18.950Z,4.40
2023-05-05T05:40:50.131Z,4.60
2023-05-05T05:43:21.002Z,4.40
2023-05-05T05:46:09.287Z,5.00
2023-05-05T05:48:40.151Z,4.50
2023-05-05T05:51:10.885Z,4.80
2023-05-05T05:53:41.487Z,5.60
2023-05-05T05:56:12.437Z,5.10
2023-05-05T06:01:12.216Z,5.50
2023-05-05T06:03:42.964Z,5.10
2023-05-05T06:06:13.695Z,4.70
2023-05-05T06:08:44.364Z,5.40
2023-05-05T06:11:15.418Z,4.40
2023-05-05T06:13:46.048Z,4.90
2023-05-05T06:16:16.792Z,4.60
2023-05-05T06:18:50.297Z,4.70
2023-05-05T06:21:20.991Z,5.90
2023-05-05T06:23:51.663Z,5.40
2023-05-05T06:26:22.341Z,4.60
2023-05-05T06:28:52.981Z,5.10
2023-05-05T06:31:23.728Z,4.80
2023-05-05T06:36:23.664Z,5.50
2023-05-05T06:38:54.374Z,5.10
2023-05-05T06:41:25.233Z,5.20
2023-05-05T06:43:56.128Z,4.80
2023-05-05T06:46:26.886Z,5.10
2023-05-05T06:48:57.509Z,4.90
2023-05-05T06:51:28.407Z,4.80
2023-05-05T06:56:28.491Z,4.70
2023-05-05T06:58:59.242Z,5.10
2023-05-05T07:01:30.071Z,5.00
2023-05-05T07:04:00.786Z,4.20
2023-05-05T07:06:31.463Z,4.20
2023-05-05T07:09:02.572Z,4.90
2023-05-05T07:11:33.674Z,4.60
2023-05-05T07:14:04.266Z,4.40
2023-05-05T07:16:35.133Z,4.90
2023-05-05T07:19:05.901Z,4.90
2023-05-05T07:21:36.621Z,4.80
2023-05-05T07:24:09.428Z,4.50
2023-05-05T07:26:40.151Z,5.00
2023-05-05T07:29:10.819Z,5.20
2023-05-05T07:31:43.907Z,5.40
2023-05-05T07:34:14.527Z,5.10
2023-05-05T07:36:45.777Z,5.40
2023-05-05T07:39:16.882Z,4.90
2023-05-05T07:41:47.561Z,4.70
2023-05-05T07:44:18.248Z,5.40
2023-05-05T07:46:49.079Z,5.50
2023-05-05T07:51:49.247Z,4.60
2023-05-05T07:54:20.074Z,4.20
2023-05-05T07:56:50.789Z,4.80
2023-05-05T07:59:21.707Z,4.80
2023-05-05T08:01:55.053Z,5.00
2023-05-05T08:04:26.061Z,5.50
2023-05-05T08:06:56.773Z,5.20
2023-05-05T08:09:27.510Z,5.80
2023-05-05T08:14:27.317Z,5.00
2023-05-05T08:16:58.135Z,5.30
2023-05-05T08:22:01.359Z,5.70
2023-05-05T08:24:32.373Z,5.70
2023-05-05T08:27:03.001Z,5.90
2023-05-05T08:29:33.630Z,5.30
2023-05-05T08:32:04.378Z,4.70
2023-05-05T08:37:04.151Z,4.80
2023-05-05T08:39:34.827Z,5.30
2023-05-05T08:42:06.147Z,5.20
2023-05-05T08:44:36.832Z,5.20
2023-05-05T08:47:10.772Z,5.50
2023-05-05T08:49:48.506Z,5.70
2023-05-05T08:52:22.756Z,5.80
2023-05-05T08:54:57.538Z,5.70
2023-05-05T08:57:35.023Z,5.60
2023-05-05T09:00:10.124Z,6.00
2023-05-05T09:02:42.427Z,5.20
2023-05-05T09:05:13.282Z,4.90
2023-05-05T09:10:13.717Z,5.50
2023-05-05T09:12:44.831Z,5.20
2023-05-05T09:15:16.218Z,5.20
2023-05-05T09:17:47.180Z,4.70
2023-05-05T09:20:17.955Z,5.40
2023-05-05T09:22:51.308Z,5.50
2023-05-05T09:25:21.988Z,5.50
2023-05-05T09:27:52.683Z,5.30
2023-05-05T09:30:26.514Z,5.60
2023-05-05T09:32:57.301Z,4.90
2023-05-05T09:37:58.270Z,5.80
2023-05-05T09:40:44.158Z,5.50
2023-05-05T09:43:15.259Z,5.10
2023-05-05T09:45:46.381Z,4.80
2023-05-05T09:48:27.913Z,5.40
2023-05-05T09:50:59.424Z,5.10
2023-05-05T09:53:40.679Z,4.90
2023-05-05T09:56:11.489Z,5.10
2023-05-05T10:01:23.516Z,5.30
2023-05-05T10:03:54.389Z,5.00
2023-05-05T10:06:41.000Z,4.90
2023-05-05T10:09:11.713Z,4.70
2023-05-05T10:11:44.714Z,5.40
2023-05-05T10:14:16.724Z,5.20
2023-05-05T10:16:50.005Z,4.60
2023-05-05T10:19:22.713Z,5.10
2023-05-05T10:21:57.634Z,5.50
2023-05-05T10:24:39.094Z,5.10
2023-05-05T10:27:15.514Z,5.30
2023-05-05T10:29:56.255Z,4.70
2023-05-05T10:35:09.873Z,4.80
2023-05-05T10:37:41.185Z,5.50
2023-05-05T10:40:14.119Z,5.20
2023-05-05T10:42:45.581Z,4.70
2023-05-05T10:45:16.453Z,5.10
2023-05-05T10:50:30.067Z,5.00
2023-05-05T10:53:13.486Z,4.80
2023-05-05T10:55:52.547Z,4.90
2023-05-05T10:58:51.178Z,5.00
2023-05-05T11:01:52.245Z,5.10
2023-05-05T11:04:23.807Z,4.40
2023-05-05T11:07:25.633Z,5.40
2023-05-05T11:09:58.370Z,5.10
2023-05-05T11:12:29.966Z,4.40
2023-05-05T11:15:37.201Z,4.90
2023-05-05T11:18:08.602Z,5.60
2023-05-05T11:21:10.187Z,5.10
2023-05-05T11:23:41.074Z,4.90
2023-05-05T11:26:12.436Z,5.50
2023-05-05T11:29:11.952Z,4.80
2023-05-05T11:31:42.647Z,5.10
2023-05-05T11:34:31.576Z,5.00
2023-05-05T11:37:07.707Z,4.60
2023-05-05T11:39:51.182Z,5.40
2023-05-05T11:42:25.030Z,4.90
2023-05-05T11:44:56.184Z,5.30
2023-05-05T11:47:33.391Z,4.90
2023-05-05T11:50:21.958Z,6.20
2023-05-05T11:52:52.608Z,5.60
2023-05-05T11:55:23.814Z,5.60
2023-05-05T11:57:54.483Z,5.10
2023-05-05T12:00:34.429Z,5.60
2023-05-05T12:03:05.626Z,4.60
2023-05-05T12:05:37.044Z,4.90
2023-05-05T12:08:08.070Z,5.30
2023-05-05T12:13:19.295Z,5.10
2023-05-05T12:15:50.095Z,5.30
2023-05-05T12:20:50.308Z,5.60
2023-05-05T12:23:21.205Z,5.40
2023-05-05T12:25:51.873Z,5.20
2023-05-05T12:30:59.132Z,5.10
2023-05-05T12:33:30.151Z,5.90
2023-05-05T12:36:16.040Z,6.00
2023-05-05T12:38:46.746Z,6.10
2023-05-05T12:43:54.184Z,5.70
2023-05-05T12:46:51.313Z,6.20
2023-05-05T12:49:21.914Z,6.30
2023-05-05T12:51:56.814Z,6.30
2023-05-05T12:54:27.797Z,6.40
2023-05-05T12:57:10.881Z,5.70
2023-05-05T12:59:42.526Z,5.70
2023-05-05T13:02:15.047Z,6.70
2023-05-05T13:04:54.607Z,5.50
2023-05-05T13:07:25.239Z,5.40
2023-05-05T13:15:11.338Z,5.20
2023-05-05T13:17:42.012Z,5.40
2023-05-05T13:22:43.592Z,5.70
2023-05-05T13:27:43.694Z,5.50
2023-05-05T13:30:17.390Z,5.90
2023-05-05T13:32:48.082Z,5.60
2023-05-05T13:35:19.038Z,5.40
2023-05-05T13:37:49.762Z,5.50
2023-05-05T13:40:24.424Z,5.80
2023-05-05T13:42:56.572Z,6.10
2023-05-05T13:45:27.194Z,5.30
2023-05-05T13:50:26.979Z,5.60
2023-05-05T13:52:57.710Z,6.40
2023-05-05T13:57:58.619Z,6.00
2023-05-05T14:00:29.480Z,5.50
2023-05-05T14:03:00.507Z,5.00
2023-05-05T14:05:31.229Z,6.10
2023-05-05T14:10:30.916Z,5.40
2023-05-05T14:15:30.716Z,6.10
2023-05-05T14:20:30.651Z,5.40
2023-05-05T14:23:01.329Z,6.00
2023-05-05T14:25:31.993Z,5.90
2023-05-05T14:30:31.787Z,5.50
2023-05-05T14:35:38.318Z,5.60
2023-05-05T14:38:09.094Z,5.20
2023-05-05T14:40:39.757Z,5.30
2023-05-05T14:45:39.615Z,5.90
2023-05-05T14:50:39.380Z,5.70
2023-05-05T14:55:40.756Z,5.30
2023-05-05T14:58:11.406Z,5.50
2023-05-05T15:03:11.260Z,5.90
2023-05-05T15:05:41.973Z,5.30
2023-05-05T15:08:12.632Z,6.40
2023-05-05T15:10:43.311Z,6.20
2023-05-05T15:15:43.673Z,5.30
2023-05-05T15:18:14.425Z,5.00
2023-05-05T15:23:45.075Z,5.90
2023-05-05T15:29:18.922Z,6.30
2023-05-05T15:31:49.585Z,7.80
2023-05-05T15:37:12.779Z,5.90
2023-05-05T15:39:43.451Z,5.40
2023-05-05T15:42:14.437Z,6.00
2023-05-05T15:47:14.139Z,5.70
2023-05-05T15:52:13.970Z,5.80
2023-05-05T15:57:16.319Z,5.80
2023-05-05T15:59:46.913Z,5.90
2023-05-05T16:02:20.808Z,5.30
2023-05-05T16:04:55.707Z,5.50
2023-05-05T16:07:26.902Z,5.70
2023-05-05T16:09:57.558Z,6.30
2023-05-05T16:12:29.246Z,5.50
2023-05-05T16:14:59.888Z,5.10
2023-05-05T16:17:30.626Z,5.30
2023-05-05T16:22:30.342Z,4.70
2023-05-05T16:25:01.020Z,5.40
2023-05-05T16:27:31.691Z,5.40
2023-05-05T16:30:02.325Z,5.50
2023-05-05T16:32:33.457Z,5.40
2023-05-05T16:35:04.548Z,5.10
2023-05-05T16:37:45.656Z,4.90
2023-05-05T16:40:16.412Z,4.40
2023-05-05T16:42:48.217Z,3.90
2023-05-05T16:45:19.288Z,5.10
2023-05-05T16:47:50.014Z,5.30
2023-05-05T16:50:20.859Z,8.40
2023-05-05T16:55:20.902Z,5.60
2023-05-05T17:00:21.053Z,5.00
2023-05-05T17:02:51.861Z,5.30
2023-05-05T17:05:22.535Z,5.70
2023-05-05T17:07:53.247Z,4.90
2023-05-05T17:10:24.032Z,4.00
2023-05-05T17:15:23.751Z,4.60
2023-05-05T17:20:23.887Z,4.80
2023-05-05T17:22:54.537Z,4.50
2023-05-05T17:25:26.809Z,5.10
2023-05-05T17:27:57.641Z,5.30
2023-05-05T17:30:48.889Z,5.00
2023-05-05T17:33:19.669Z,4.90
2023-05-05T17:35:50.289Z,4.70
2023-05-05T17:38:20.974Z,4.50
2023-05-05T17:40:51.741Z,4.90
2023-05-05T17:43:32.884Z,5.50
2023-05-05T17:46:03.619Z,5.20
2023-05-05T17:48:34.311Z,5.20
2023-05-05T17:51:05.375Z,5.00
2023-05-05T17:53:36.394Z,5.70
2023-05-05T17:58:39.572Z,6.10
2023-05-05T18:01:19.339Z,6.30
2023-05-05T18:03:50.190Z,5.70
2023-05-05T18:08:49.975Z,6.60
2023-05-05T18:11:20.580Z,6.00
2023-05-05T18:13:51.219Z,6.10
2023-05-05T18:16:44.848Z,6.20
2023-05-05T18:19:13.295Z,6.80
2023-05-05T18:21:44.046Z,6.60
2023-05-05T18:24:20.043Z,8.50
2023-05-05T18:26:52.509Z,6.30
2023-05-05T18:29:23.575Z,5.80
2023-05-05T18:31:54.263Z,6.20
2023-05-05T18:34:24.976Z,5.10
2023-05-05T18:36:55.575Z,5.70
2023-05-05T18:39:30.936Z,6.30
2023-05-05T18:42:01.598Z,6.20
2023-05-05T18:44:52.276Z,5.80
2023-05-05T18:47:22.895Z,7.60
2023-05-05T18:49:53.585Z,9.10
2023-05-05T18:52:26.544Z,8.90
2023-05-05T18:54:57.286Z,7.90
2023-05-05T18:57:29.876Z,8.10
2023-05-05T19:00:00.667Z,6.20
2023-05-05T19:02:41.264Z,7.80
2023-05-05T19:05:12.628Z,6.80
2023-05-05T19:07:43.447Z,6.80
2023-05-05T19:10:17.353Z,5.90
2023-05-05T19:12:51.653Z,6.50
2023-05-05T19:15:22.433Z,6.50
2023-05-05T19:18:03.307Z,6.50
2023-05-05T19:23:10.984Z,5.30
2023-05-05T19:26:04.473Z,5.90
2023-05-05T19:28:34.805Z,6.50
2023-05-05T19:31:05.791Z,6.60
2023-05-05T19:36:06.371Z,6.00
2023-05-05T19:38:37.023Z,5.40
2023-05-05T19:41:07.861Z,6.60
2023-05-05T19:43:38.457Z,6.60
2023-05-05T19:46:11.057Z,6.30
2023-05-05T19:49:05.168Z,5.50
2023-05-05T19:51:37.509Z,5.50
2023-05-05T19:54:09.870Z,5.10
2023-05-05T19:56:40.618Z,5.80
2023-05-05T19:59:11.253Z,5.80
2023-05-05T20:01:42.032Z,5.30
2023-05-05T20:06:41.981Z,5.30
2023-05-05T20:09:12.617Z,6.20
2023-05-05T20:11:43.226Z,6.60
2023-05-05T20:14:13.955Z,6.00
2023-05-05T20:16:44.646Z,5.70
2023-05-05T20:19:15.321Z,6.20
2023-05-05T20:21:46.032Z,5.40
2023-05-05T20:24:16.692Z,4.20
2023-05-05T20:26:47.755Z,5.60
2023-05-05T20:29:18.469Z,5.70
2023-05-05T20:31:53.805Z,6.30
2023-05-05T20:34:24.758Z,5.50
2023-05-05T20:36:57.465Z,5.60
2023-05-05T20:39:28.177Z,6.20
2023-05-05T20:41:58.964Z,6.00
2023-05-05T20:44:29.545Z,4.90
2023-05-05T20:47:23.160Z,5.50
2023-05-05T20:52:21.076Z,5.50
2023-05-05T20:54:51.715Z,4.90
2023-05-05T20:57:22.495Z,5.40
2023-05-05T20:59:53.082Z,5.20
2023-05-05T21:02:23.887Z,5.00
2023-05-05T21:04:54.532Z,5.30
2023-05-05T21:07:25.197Z,5.40
2023-05-05T21:09:55.826Z,5.40
2023-05-05T21:12:26.513Z,4.50
2023-05-05T21:14:57.439Z,5.00
2023-05-05T21:19:57.579Z,4.00
2023-05-05T21:22:28.299Z,4.20
2023-05-05T21:25:10.502Z,4.70
2023-05-05T21:27:41.393Z,4.20
2023-05-05T21:30:13.205Z,4.90
2023-05-05T21:32:46.044Z,4.90
2023-05-05T21:35:16.787Z,4.80
2023-05-05T21:37:48.736Z,5.00
2023-05-05T21:40:19.334Z,4.60
2023-05-05T21:42:50.077Z,4.60
2023-05-05T21:45:20.987Z,5.10
2023-05-05T21:47:51.889Z,5.30
2023-05-05T21:50:22.761Z,4.80
2023-05-05T21:52:53.373Z,4.60
2023-05-05T21:55:24.127Z,4.40
2023-05-05T21:57:54.754Z,5.20
2023-05-05T22:00:25.567Z,4.60
2023-05-05T22:02:56.798Z,4.20
2023-05-05T22:05:27.646Z,4.80
2023-05-05T22:07:58.300Z,4.90
2023-05-05T22:10:29.115Z,4.80
2023-05-05T22:12:59.773Z,4.50
2023-05-05T22:15:38.945Z,4.90
2023-05-05T22:18:16.505Z,4.60
2023-05-05T22:20:47.277Z,5.20
2023-05-05T22:23:17.908Z,4.80
2023-05-05T22:25:48.527Z,4.60
2023-05-05T22:28:19.368Z,4.90
2023-05-05T22:30:50.477Z,5.20
2023-05-05T22:33:21.128Z,4.50
2023-05-05T22:35:51.757Z,4.60
2023-05-05T22:38:22.383Z,5.20
2023-05-05T22:40:53.039Z,4.90
2023-05-05T22:43:23.680Z,4.60
2023-05-05T22:45:54.427Z,4.40
2023-05-05T22:48:25.152Z,5.40
2023-05-05T22:50:55.775Z,5.40
2023-05-05T22:53:26.522Z,5.10
2023-05-05T22:55:57.562Z,5.70
2023-05-05T22:58:28.693Z,4.80
2023-05-05T23:00:59.361Z,4.90
2023-05-05T23:05:59.405Z,5.10
2023-05-05T23:08:30.082Z,5.10
2023-05-05T23:11:01.439Z,6.10
2023-05-05T23:13:32.093Z,6.00
2023-05-05T23:16:03.187Z,5.60
2023-05-05T23:18:33.929Z,6.00
2023-05-05T23:21:04.990Z,6.00
2023-05-05T23:26:04.660Z,8.50
2023-05-05T23:28:35.231Z,7.90
2023-05-05T23:31:06.000Z,6.50
2023-05-05T23:33:36.788Z,5.70
2023-05-05T23:36:09.376Z,5.80
2023-05-05T23:38:40.007Z,6.20
2023-05-05T23:41:10.663Z,6.60
2023-05-05T23:43:41.349Z,6.00
2023-05-05T23:46:12.049Z,6.60
2023-05-05T23:48:42.719Z,7.20
2023-05-05T23:51:13.290Z,5.90
2023-05-05T23:53:43.933Z,6.40
2023-05-05T23:56:14.613Z,6.50
2023-05-05T23:58:45.212Z,6.20
